EW9985 Weather Reports


time (UTC)temp
F
wind
direction
speed
knots
gust
knots
rain 1hr
in
rain 24hr
in
rain mn
in
humidity
%
barometer
mb
20260508043049 63 86 0.0 0.9 0.00 0.00 0.00 86 1014.8
20260508041543 62 57 0.0 1.7 0.00 0.00 0.00 86 1014.6
20260508040050 62 90 0.9 1.7 0.00 0.00 0.00 86 1014.5
20260508034545 63 132 0.0 1.7 0.00 0.00 0.00 85 1014.3
20260508033042 63 126 0.0 1.7 0.00 0.00 0.00 86 1014.1
20260508031551 63 119 0.0 2.6 0.00 0.00 0.00 85 1014.0
20260508030041 63 137 0.0 1.7 0.00 0.00 0.00 84 1013.8
20260508024540 64 118 0.0 1.7 0.00 0.00 0.00 84 1013.4
20260508023039 64 179 0.9 1.7 0.00 0.00 0.00 83 1013.2
20260508021541 64 126 0.0 1.7 0.00 0.00 0.00 82 1013.1
20260508020039 65 34 0.0 2.6 0.00 0.00 0.00 81 1012.9
20260508014538 66 297 0.0 2.6 0.00 0.00 0.00 80 1012.8
20260508013040 67 208 0.0 2.6 0.00 0.00 0.00 79 1012.8
20260508011544 68 265 0.0 2.6 0.00 0.00 0.00 77 1012.8
20260508010040 70 310 0.0 1.7 0.00 0.00 0.00 74 1012.9
20260508004540 73 171 0.0 1.7 0.00 0.00 0.00 71 1012.8
20260508003036 73 234 0.0 2.6 0.00 0.00 0.00 71 1012.7
20260508001537 73 211 0.0 1.7 0.00 0.00 0.00 70 1012.7
20260508000031 72 235 0.0 1.7 0.00 0.00 0.00 71 1012.8
20260507234535 72 192 0.0 2.6 0.00 0.00 0.00 72 1013.0
20260507233033 70 230 0.0 1.7 0.00 0.00 0.00 74 1012.9
20260507231531 70 205 0.0 2.6 0.00 0.00 0.00 75 1012.9
20260507230026 70 227 0.0 2.6 0.00 0.00 0.00 74 1013.1
20260507224526 71 33 1.7 5.2 0.00 0.00 0.00 71 1013.2
20260507223024 72 219 0.9 3.5 0.00 0.00 0.00 71 1013.4
20260507221524 71 144 0.9 5.2 0.00 0.00 0.00 72 1013.4
20260507220021 72 193 0.0 2.6 0.00 0.00 0.00 71 1013.6
20260507214525 71 208 0.9 3.5 0.00 0.00 0.00 72 1013.7
20260507213017 71 217 0.9 4.3 0.00 0.00 0.00 72 1014.0
20260507211516 71 155 0.9 3.5 0.00 0.00 0.00 72 1014.1
20260507210016 71 253 0.9 4.3 0.00 0.00 0.00 71 1014.2
20260507204513 71 193 1.7 3.5 0.00 0.00 0.00 71 1014.2
20260507203013 70 360 0.9 4.3 0.00 0.00 0.00 73 1014.3
20260507201610 70 298 0.9 2.6 0.00 0.00 0.00 72 1014.3
20260507200008 70 48 0.0 3.5 0.00 0.00 0.00 73 1014.4
20260507194508 69 200 0.9 3.5 0.00 0.00 0.00 74 1014.6
20260507193005 69 286 0.0 5.2 0.00 0.00 0.00 74 1014.7
20260507191504 69 290 0.9 3.5 0.00 0.00 0.00 74 1014.8
20260507190003 69 217 0.9 4.3 0.00 0.00 0.00 75 1015.1
20260507184558 68 185 0.0 3.5 0.00 0.00 0.00 76 1015.2
20260507183056 68 40 0.9 2.6 0.00 0.00 0.00 75 1015.2
20260507181553 68 157 0.0 3.5 0.00 0.00 0.00 76 1015.3
20260507180051 67 26 0.0 4.3 0.00 0.00 0.00 77 1015.3
20260507174614 67 271 0.9 3.5 0.00 0.00 0.00 77 1015.3
20260507173046 67 227 0.0 2.6 0.00 0.00 0.00 79 1015.4
20260507171559 66 261 0.0 1.7 0.00 0.00 0.00 78 1015.5
20260507170039 66 242 0.0 1.7 0.00 0.00 0.00 80 1015.6
20260507164537 64 167 0.0 2.6 0.00 0.00 0.00 82 1015.6
20260507163029 63 302 0.0 2.6 0.00 0.00 0.00 84 1015.5
20260507161527 62 167 0.0 2.6 0.00 0.00 0.00 85 1015.5
20260507160023 62 177 0.0 2.6 0.00 0.00 0.00 88 1015.5
20260507154521 61 184 0.0 2.6 0.00 0.00 0.00 88 1015.5
20260507153019 60 187 0.0 1.7 0.00 0.00 0.00 89 1015.7
20260507151511 60 250 0.0 1.7 0.00 0.00 0.00 89 1015.6
20260507150007 58 40 0.0 0.9 0.00 0.00 0.00 90 1015.7
20260507144502 57 39 0.0 0.9 0.00 0.00 0.00 90 1015.6
20260507143119 55 39 0.0 1.7 0.00 0.00 0.00 90 1015.5
20260507141626 54 41 0.0 1.7 0.00 0.00 0.00 91 1015.3
20260507140112 53 41 0.0 1.7 0.00 0.00 0.00 91 1015.2
20260507134555 52 41 0.0 0.0 0.00 0.00 0.00 91 1015.1
20260507133057 51 41 0.0 0.9 0.00 0.00 0.00 91 1015.1
20260507131613 51 41 0.0 0.0 0.00 0.00 0.00 90 1014.8
20260507130047 51 41 0.0 1.7 0.00 0.00 0.00 90 1014.8
20260507124553 51 41 0.0 0.9 0.00 0.00 0.00 90 1014.7
20260507123046 52 41 0.0 0.9 0.00 0.00 0.00 89 1014.7
20260507121544 52 41 0.0 0.9 0.00 0.00 0.00 90 1014.6
20260507120043 52 40 0.0 1.7 0.00 0.00 0.00 89 1014.7
20260507114540 52 40 0.0 0.9 0.00 0.00 0.00 89 1014.8
20260507113102 52 40 0.0 0.9 0.00 0.00 0.00 89 1014.7
20260507111538 52 41 0.0 0.9 0.00 0.00 0.00 89 1015.0
20260507110039 53 41 0.0 0.9 0.00 0.00 0.00 89 1015.0
20260507104536 53 41 0.0 0.9 0.00 0.00 0.00 88 1015.0
20260507103033 54 41 0.0 0.9 0.00 0.00 0.00 88 1015.1
20260507101532 54 41 0.0 1.7 0.00 0.00 0.00 89 1015.1
20260507100042 54 64 0.0 2.6 0.00 0.00 0.00 88 1015.0
20260507094529 54 355 0.9 3.5 0.00 0.00 0.00 89 1015.1
20260507093031 54 32 0.0 3.5 0.00 0.00 0.00 88 1015.1
20260507091529 54 40 0.0 2.6 0.00 0.00 0.00 88 1015.3
20260507090122 54 18 0.0 0.9 0.00 0.00 0.00 87 1015.5
20260507084541 54 17 0.0 1.7 0.00 0.00 0.00 87 1015.8
20260507083024 54 17 0.0 0.9 0.00 0.00 0.00 87 1015.8
20260507081516 55 17 0.0 0.9 0.00 0.00 0.00 86 1016.0
20260507080016 55 17 0.0 1.7 0.00 0.00 0.00 86 1016.1
20260507074514 55 17 0.0 1.7 0.00 0.00 0.00 86 1016.0
20260507073012 56 15 0.0 1.7 0.00 0.00 0.00 86 1015.9
20260507071516 56 17 0.0 0.9 0.00 0.00 0.00 85 1016.0
20260507070016 56 15 0.0 1.7 0.00 0.00 0.00 85 1016.1
20260507064507 56 15 0.0 0.9 0.00 0.00 0.00 84 1016.2
20260507063007 57 14 0.0 0.9 0.00 0.00 0.00 84 1016.4
20260507061507 57 14 0.0 0.9 0.00 0.00 0.00 84 1016.3
20260507060006 58 13 0.0 0.9 0.00 0.00 0.00 83 1016.4
20260507054509 58 14 0.0 0.9 0.00 0.00 0.00 83 1016.4
20260507053006 58 13 0.0 0.9 0.00 0.00 0.00 82 1016.5
20260507051505 59 13 0.0 0.9 0.00 0.00 0.00 81 1016.1
20260507050013 59 13 0.0 1.7 0.00 0.00 0.00 82 1016.1
20260507044503 60 298 0.0 0.9 0.00 0.00 0.00 82 1016.0